sensor_id;sensor_type;location;lat;lon;timestamp;pressure;altitude;pressure_sealevel;temperature;humidity
64602;BME280;51013;42.630;23.192;2022-08-11T00:00:31;92586.59;;;17.46;85.46
64602;BME280;51013;42.630;23.192;2022-08-11T00:03:04;92588.84;;;17.43;85.17
64602;BME280;51013;42.630;23.192;2022-08-11T00:05:35;92588.47;;;17.41;85.07
64602;BME280;51013;42.630;23.192;2022-08-11T00:08:11;92542.44;;;17.12;84.80
64602;BME280;51013;42.630;23.192;2022-08-11T00:10:51;92595.69;;;17.41;85.38
64602;BME280;51013;42.630;23.192;2022-08-11T00:13:21;92506.22;;;16.75;85.24
64602;BME280;51013;42.630;23.192;2022-08-11T00:15:49;92534.75;;;16.93;85.13
64602;BME280;51013;42.630;23.192;2022-08-11T00:18:16;92597.53;;;17.30;85.09
64602;BME280;51013;42.630;23.192;2022-08-11T00:20:44;92572.78;;;17.11;85.14
64602;BME280;51013;42.630;23.192;2022-08-11T00:23:12;92586.84;;;17.19;85.16
64602;BME280;51013;42.630;23.192;2022-08-11T00:25:43;92527.09;;;16.80;84.72
64602;BME280;51013;42.630;23.192;2022-08-11T00:28:24;92591.81;;;17.24;84.77
64602;BME280;51013;42.630;23.192;2022-08-11T00:30:52;92591.81;;;17.24;83.95
64602;BME280;51013;42.630;23.192;2022-08-11T00:33:22;92586.47;;;17.20;84.30
64602;BME280;51013;42.630;23.192;2022-08-11T00:35:50;92451.66;;;16.12;85.05
64602;BME280;51013;42.630;23.192;2022-08-11T00:38:24;92566.59;;;16.89;85.29
64602;BME280;51013;42.630;23.192;2022-08-11T00:40:55;92548.00;;;16.86;85.40
64602;BME280;51013;42.630;23.192;2022-08-11T00:43:46;92535.03;;;16.77;85.42
64602;BME280;51013;42.630;23.192;2022-08-11T00:46:24;92580.75;;;17.15;85.81
64602;BME280;51013;42.630;23.192;2022-08-11T00:49:04;92583.41;;;17.11;86.14
64602;BME280;51013;42.630;23.192;2022-08-11T00:51:56;92574.28;;;17.09;85.13
64602;BME280;51013;42.630;23.192;2022-08-11T00:54:53;92572.34;;;17.02;85.36
64602;BME280;51013;42.630;23.192;2022-08-11T01:00:48;92574.28;;;17.09;85.71
64602;BME280;51013;42.630;23.192;2022-08-11T01:03:32;92576.97;;;17.12;85.26
64602;BME280;51013;42.630;23.192;2022-08-11T01:06:30;92524.03;;;16.78;84.85
64602;BME280;51013;42.630;23.192;2022-08-11T01:09:27;92570.88;;;17.08;84.68
64602;BME280;51013;42.630;23.192;2022-08-11T01:12:23;92567.44;;;17.04;84.70
64602;BME280;51013;42.630;23.192;2022-08-11T01:15:23;92563.59;;;16.94;84.62
64602;BME280;51013;42.630;23.192;2022-08-11T01:18:52;92560.53;;;16.92;84.65
64602;BME280;51013;42.630;23.192;2022-08-11T01:24:58;92478.94;;;16.12;84.43
64602;BME280;51013;42.630;23.192;2022-08-11T01:31:15;92564.97;;;16.77;84.83
64602;BME280;51013;42.630;23.192;2022-08-11T01:40:38;92544.00;;;16.58;84.93
64602;BME280;51013;42.630;23.192;2022-08-11T01:43:44;92559.22;;;16.65;84.51
64602;BME280;51013;42.630;23.192;2022-08-11T01:46:33;92542.00;;;16.44;84.35
64602;BME280;51013;42.630;23.192;2022-08-11T01:49:07;92484.59;;;16.11;84.52
64602;BME280;51013;42.630;23.192;2022-08-11T01:52:03;92466.75;;;16.04;84.61
64602;BME280;51013;42.630;23.192;2022-08-11T01:54:41;92513.50;;;16.27;84.18
64602;BME280;51013;42.630;23.192;2022-08-11T01:57:23;92531.28;;;16.30;84.38
64602;BME280;51013;42.630;23.192;2022-08-11T02:00:03;92498.63;;;16.15;84.21
64602;BME280;51013;42.630;23.192;2022-08-11T02:02:38;92562.91;;;16.53;84.33
64602;BME280;51013;42.630;23.192;2022-08-11T02:05:48;92541.50;;;16.28;84.44
64602;BME280;51013;42.630;23.192;2022-08-11T02:08:41;92488.63;;;15.97;84.29
64602;BME280;51013;42.630;23.192;2022-08-11T02:11:21;92512.59;;;16.08;84.29
64602;BME280;51013;42.630;23.192;2022-08-11T02:14:01;92555.19;;;16.33;84.63
64602;BME280;51013;42.630;23.192;2022-08-11T02:16:44;92492.34;;;15.86;84.24
64602;BME280;51013;42.630;23.192;2022-08-11T02:19:22;92557.00;;;16.26;84.39
64602;BME280;51013;42.630;23.192;2022-08-11T02:22:16;92558.16;;;16.25;84.37
64602;BME280;51013;42.630;23.192;2022-08-11T02:25:05;92526.91;;;16.00;84.35
64602;BME280;51013;42.630;23.192;2022-08-11T02:27:40;92546.63;;;16.06;84.43
64602;BME280;51013;42.630;23.192;2022-08-11T02:30:13;92504.41;;;15.79;84.50
64602;BME280;51013;42.630;23.192;2022-08-11T02:32:47;92559.66;;;16.22;84.61
64602;BME280;51013;42.630;23.192;2022-08-11T02:35:42;92510.84;;;15.82;84.13
64602;BME280;51013;42.630;23.192;2022-08-11T02:38:18;92562.25;;;16.18;83.77
64602;BME280;51013;42.630;23.192;2022-08-11T02:40:55;92558.84;;;16.18;83.72
64602;BME280;51013;42.630;23.192;2022-08-11T02:43:36;92557.28;;;16.13;83.83
64602;BME280;51013;42.630;23.192;2022-08-11T02:46:19;92559.91;;;16.10;83.92
64602;BME280;51013;42.630;23.192;2022-08-11T02:49:02;92554.56;;;16.02;84.16
64602;BME280;51013;42.630;23.192;2022-08-11T02:51:59;92541.63;;;15.97;83.96
64602;BME280;51013;42.630;23.192;2022-08-11T02:54:35;92503.09;;;15.66;83.73
64602;BME280;51013;42.630;23.192;2022-08-11T02:57:12;92453.19;;;15.27;84.00
64602;BME280;51013;42.630;23.192;2022-08-11T02:59:49;92559.78;;;15.95;83.84
64602;BME280;51013;42.630;23.192;2022-08-11T03:02:32;92533.44;;;15.72;84.51
64602;BME280;51013;42.630;23.192;2022-08-11T03:05:14;92453.03;;;15.16;83.75
64602;BME280;51013;42.630;23.192;2022-08-11T03:07:55;92538.31;;;15.70;84.18
64602;BME280;51013;42.630;23.192;2022-08-11T03:10:35;92515.03;;;15.49;84.25
64602;BME280;51013;42.630;23.192;2022-08-11T03:13:14;92572.16;;;15.84;84.18
64602;BME280;51013;42.630;23.192;2022-08-11T03:16:09;92564.97;;;15.85;84.32
64602;BME280;51013;42.630;23.192;2022-08-11T03:19:06;92518.84;;;15.52;84.01
64602;BME280;51013;42.630;23.192;2022-08-11T03:21:38;92555.50;;;15.84;83.82
64602;BME280;51013;42.630;23.192;2022-08-11T03:24:13;92453.03;;;15.13;83.57
64602;BME280;51013;42.630;23.192;2022-08-11T03:26:57;92539.81;;;15.71;83.80
64602;BME280;51013;42.630;23.192;2022-08-11T03:29:33;92497.88;;;15.36;83.49
64602;BME280;51013;42.630;23.192;2022-08-11T03:32:04;92557.31;;;15.76;83.69
64602;BME280;51013;42.630;23.192;2022-08-11T03:34:38;92498.91;;;15.28;83.86
64602;BME280;51013;42.630;23.192;2022-08-11T03:37:14;92540.78;;;15.52;83.96
64602;BME280;51013;42.630;23.192;2022-08-11T03:40:05;92551.84;;;15.61;83.88
64602;BME280;51013;42.630;23.192;2022-08-11T03:42:42;92527.84;;;15.43;84.06
64602;BME280;51013;42.630;23.192;2022-08-11T03:45:22;92509.91;;;15.30;84.04
64602;BME280;51013;42.630;23.192;2022-08-11T03:47:59;92542.66;;;15.52;84.50
64602;BME280;51013;42.630;23.192;2022-08-11T03:50:53;92528.94;;;15.42;84.07
64602;BME280;51013;42.630;23.192;2022-08-11T03:53:43;92544.56;;;15.55;84.32
64602;BME280;51013;42.630;23.192;2022-08-11T04:02:32;92489.97;;;15.06;84.67
64602;BME280;51013;42.630;23.192;2022-08-11T04:05:33;92561.91;;;15.49;84.54
64602;BME280;51013;42.630;23.192;2022-08-11T04:08:30;92561.91;;;15.49;84.81
64602;BME280;51013;42.630;23.192;2022-08-11T04:11:24;92540.97;;;15.36;84.80
64602;BME280;51013;42.630;23.192;2022-08-11T04:14:41;92557.00;;;15.47;85.18
64602;BME280;51013;42.630;23.192;2022-08-11T04:20:46;92551.66;;;15.43;85.54
64602;BME280;51013;42.630;23.192;2022-08-11T04:26:47;92493.66;;;14.97;85.82
64602;BME280;51013;42.630;23.192;2022-08-11T04:29:34;92510.03;;;15.07;86.08
64602;BME280;51013;42.630;23.192;2022-08-11T04:32:25;92557.31;;;15.42;86.72
64602;BME280;51013;42.630;23.192;2022-08-11T04:35:10;92534.81;;;15.29;86.82
64602;BME280;51013;42.630;23.192;2022-08-11T04:38:00;92557.34;;;15.46;87.43
64602;BME280;51013;42.630;23.192;2022-08-11T04:40:55;92561.19;;;15.52;87.55
64602;BME280;51013;42.630;23.192;2022-08-11T04:44:06;92481.63;;;15.03;87.92
64602;BME280;51013;42.630;23.192;2022-08-11T04:50:18;92510.78;;;15.41;88.79
64602;BME280;51013;42.630;23.192;2022-08-11T04:53:32;92540.88;;;15.63;89.03
64602;BME280;51013;42.630;23.192;2022-08-11T04:56:19;92554.97;;;15.71;89.30
64602;BME280;51013;42.630;23.192;2022-08-11T04:59:39;92560.81;;;15.84;89.55
64602;BME280;51013;42.630;23.192;2022-08-11T05:03:02;92560.91;;;15.94;89.99
64602;BME280;51013;42.630;23.192;2022-08-11T05:09:06;92555.66;;;16.01;91.03
64602;BME280;51013;42.630;23.192;2022-08-11T05:11:58;92542.41;;;16.01;90.76
64602;BME280;51013;42.630;23.192;2022-08-11T05:14:38;92556.19;;;16.18;91.49
64602;BME280;51013;42.630;23.192;2022-08-11T05:17:33;92521.66;;;16.07;91.89
64602;BME280;51013;42.630;23.192;2022-08-11T05:20:20;92533.91;;;16.22;92.36
64602;BME280;51013;42.630;23.192;2022-08-11T05:23:07;92537.00;;;16.32;94.00
64602;BME280;51013;42.630;23.192;2022-08-11T05:25:58;92553.03;;;16.50;97.20
64602;BME280;51013;42.630;23.192;2022-08-11T05:28:51;92526.13;;;16.48;97.02
64602;BME280;51013;42.630;23.192;2022-08-11T05:31:38;92533.06;;;16.63;96.97
64602;BME280;51013;42.630;23.192;2022-08-11T05:34:26;92533.16;;;16.77;96.65
64602;BME280;51013;42.630;23.192;2022-08-11T05:37:15;92530.19;;;16.86;97.46
64602;BME280;51013;42.630;23.192;2022-08-11T05:39:48;92550.78;;;17.11;97.22
64602;BME280;51013;42.630;23.192;2022-08-11T05:42:38;92545.53;;;17.25;95.87
64602;BME280;51013;42.630;23.192;2022-08-11T05:45:26;92539.09;;;17.26;95.37
64602;BME280;51013;42.630;23.192;2022-08-11T05:48:11;92513.31;;;17.19;95.47
64602;BME280;51013;42.630;23.192;2022-08-11T05:50:57;92483.28;;;17.08;94.91
64602;BME280;51013;42.630;23.192;2022-08-11T05:53:45;92530.81;;;17.46;92.91
64602;BME280;51013;42.630;23.192;2022-08-11T05:56:33;92562.78;;;17.78;92.77
64602;BME280;51013;42.630;23.192;2022-08-11T05:59:04;92535.44;;;17.63;92.17
64602;BME280;51013;42.630;23.192;2022-08-11T06:01:33;92540.44;;;17.82;91.68
64602;BME280;51013;42.630;23.192;2022-08-11T06:04:06;92540.84;;;17.92;91.16
64602;BME280;51013;42.630;23.192;2022-08-11T06:06:51;92484.19;;;17.59;91.63
64602;BME280;51013;42.630;23.192;2022-08-11T06:09:27;92564.41;;;18.18;91.20
64602;BME280;51013;42.630;23.192;2022-08-11T06:11:59;92539.34;;;18.12;90.94
64602;BME280;51013;42.630;23.192;2022-08-11T06:14:28;92561.78;;;18.36;89.49
64602;BME280;51013;42.630;23.192;2022-08-11T06:16:58;92512.78;;;18.16;87.87
64602;BME280;51013;42.630;23.192;2022-08-11T06:19:34;92557.22;;;18.58;88.46
64602;BME280;51013;42.630;23.192;2022-08-11T06:22:03;92553.03;;;18.65;88.17
64602;BME280;51013;42.630;23.192;2022-08-11T06:24:31;92551.13;;;18.69;87.37
64602;BME280;51013;42.630;23.192;2022-08-11T06:27:01;92513.91;;;18.47;86.71
64602;BME280;51013;42.630;23.192;2022-08-11T06:29:35;92525.31;;;18.66;87.16
64602;BME280;51013;42.630;23.192;2022-08-11T06:32:05;92529.84;;;18.87;87.06
64602;BME280;51013;42.630;23.192;2022-08-11T06:34:45;92537.81;;;18.94;84.33
64602;BME280;51013;42.630;23.192;2022-08-11T06:37:22;92545.03;;;19.04;84.36
64602;BME280;51013;42.630;23.192;2022-08-11T06:40:00;92499.03;;;18.71;84.24
64602;BME280;51013;42.630;23.192;2022-08-11T06:42:45;92550.28;;;19.22;82.68
64602;BME280;51013;42.630;23.192;2022-08-11T06:45:24;92520.28;;;19.07;83.22
64602;BME280;51013;42.630;23.192;2022-08-11T06:47:52;92518.00;;;19.16;81.77
64602;BME280;51013;42.630;23.192;2022-08-11T06:50:21;92531.63;;;19.26;81.69
64602;BME280;51013;42.630;23.192;2022-08-11T06:53:07;92550.59;;;19.46;81.11
64602;BME280;51013;42.630;23.192;2022-08-11T06:55:38;92524.38;;;19.33;81.34
64602;BME280;51013;42.630;23.192;2022-08-11T06:58:27;92505.72;;;19.37;78.84
64602;BME280;51013;42.630;23.192;2022-08-11T07:01:18;92542.91;;;19.62;81.55
64602;BME280;51013;42.630;23.192;2022-08-11T07:03:50;92531.47;;;19.65;79.82
64602;BME280;51013;42.630;23.192;2022-08-11T07:06:31;92556.84;;;19.98;78.17
64602;BME280;51013;42.630;23.192;2022-08-11T07:12:31;92562.41;;;20.22;75.76
64602;BME280;51013;42.630;23.192;2022-08-11T07:15:23;92549.47;;;20.17;74.79
64602;BME280;51013;42.630;23.192;2022-08-11T07:18:19;92528.25;;;20.02;74.70
64602;BME280;51013;42.630;23.192;2022-08-11T07:21:13;92543.41;;;20.16;74.06
64602;BME280;51013;42.630;23.192;2022-08-11T07:24:00;92522.16;;;20.02;74.22
64602;BME280;51013;42.630;23.192;2022-08-11T07:26:49;92508.53;;;19.89;73.66
64602;BME280;51013;42.630;23.192;2022-08-11T07:29:37;92534.69;;;20.09;73.26
64602;BME280;51013;42.630;23.192;2022-08-11T07:32:13;92512.25;;;19.99;73.47
64602;BME280;51013;42.630;23.192;2022-08-11T07:34:46;92550.56;;;20.27;74.27
64602;BME280;51013;42.630;23.192;2022-08-11T07:37:16;92514.06;;;20.16;73.47
64602;BME280;51013;42.630;23.192;2022-08-11T07:39:45;92567.88;;;20.60;74.40
64602;BME280;51013;42.630;23.192;2022-08-11T07:42:14;92565.13;;;20.71;72.19
64602;BME280;51013;42.630;23.192;2022-08-11T07:44:43;92501.66;;;20.44;71.76
64602;BME280;51013;42.630;23.192;2022-08-11T07:47:30;92519.41;;;20.65;70.92
64602;BME280;51013;42.630;23.192;2022-08-11T07:50:16;92515.53;;;20.73;70.73
64602;BME280;51013;42.630;23.192;2022-08-11T07:53:01;92562.50;;;21.09;69.61
64602;BME280;51013;42.630;23.192;2022-08-11T07:55:30;92566.56;;;21.20;71.41
64602;BME280;51013;42.630;23.192;2022-08-11T07:57:59;92541.50;;;21.11;69.05
64602;BME280;51013;42.630;23.192;2022-08-11T08:00:45;92501.31;;;20.84;69.51
64602;BME280;51013;42.630;23.192;2022-08-11T08:03:30;92520.13;;;21.11;70.56
64602;BME280;51013;42.630;23.192;2022-08-11T08:06:18;92558.34;;;21.38;68.33
64602;BME280;51013;42.630;23.192;2022-08-11T08:09:02;92564.03;;;21.44;68.35
64602;BME280;51013;42.630;23.192;2022-08-11T08:11:48;92512.34;;;21.24;69.14
64602;BME280;51013;42.630;23.192;2022-08-11T08:14:33;92568.72;;;21.67;66.47
64602;BME280;51013;42.630;23.192;2022-08-11T08:17:18;92506.13;;;21.34;66.35
64602;BME280;51013;42.630;23.192;2022-08-11T08:20:04;92565.13;;;21.81;66.29
64602;BME280;51013;42.630;23.192;2022-08-11T08:22:37;92501.66;;;21.58;66.64
64602;BME280;51013;42.630;23.192;2022-08-11T08:25:07;92545.81;;;21.97;65.60
64602;BME280;51013;42.630;23.192;2022-08-11T08:27:36;92555.22;;;22.09;63.45
64602;BME280;51013;42.630;23.192;2022-08-11T08:30:05;92504.50;;;21.74;64.25
64602;BME280;51013;42.630;23.192;2022-08-11T08:32:50;92518.41;;;21.89;63.56
64602;BME280;51013;42.630;23.192;2022-08-11T08:35:17;92475.59;;;21.66;63.53
64602;BME280;51013;42.630;23.192;2022-08-11T08:37:48;92550.00;;;22.29;62.49
64602;BME280;51013;42.630;23.192;2022-08-11T08:40:15;92547.56;;;22.38;64.87
64602;BME280;51013;42.630;23.192;2022-08-11T08:42:46;92529.75;;;22.28;62.56
64602;BME280;51013;42.630;23.192;2022-08-11T08:45:17;92530.56;;;22.25;61.61
64602;BME280;51013;42.630;23.192;2022-08-11T08:47:46;92545.84;;;22.51;61.20
64602;BME280;51013;42.630;23.192;2022-08-11T08:50:16;92497.31;;;22.22;62.24
64602;BME280;51013;42.630;23.192;2022-08-11T08:52:52;92394.00;;;21.57;61.12
64602;BME280;51013;42.630;23.192;2022-08-11T08:55:20;92457.75;;;22.10;60.93
64602;BME280;51013;42.630;23.192;2022-08-11T08:57:49;92542.75;;;22.76;60.29
64602;BME280;51013;42.630;23.192;2022-08-11T09:00:18;92485.59;;;22.39;58.46
64602;BME280;51013;42.630;23.192;2022-08-11T09:02:46;92531.03;;;22.90;60.39
64602;BME280;51013;42.630;23.192;2022-08-11T09:05:16;92536.00;;;22.92;60.79
64602;BME280;51013;42.630;23.192;2022-08-11T09:07:44;92514.56;;;22.92;59.93
64602;BME280;51013;42.630;23.192;2022-08-11T09:10:18;92517.25;;;22.92;58.04
64602;BME280;51013;42.630;23.192;2022-08-11T09:12:45;92530.41;;;23.06;56.52
64602;BME280;51013;42.630;23.192;2022-08-11T09:15:13;92534.88;;;23.13;57.24
64602;BME280;51013;42.630;23.192;2022-08-11T09:17:44;92502.97;;;22.98;55.95
64602;BME280;51013;42.630;23.192;2022-08-11T09:20:17;92529.06;;;23.18;58.16
64602;BME280;51013;42.630;23.192;2022-08-11T09:22:45;92500.47;;;22.88;56.29
64602;BME280;51013;42.630;23.192;2022-08-11T09:25:32;92524.16;;;23.13;57.64
64602;BME280;51013;42.630;23.192;2022-08-11T09:28:18;92503.06;;;23.15;55.89
64602;BME280;51013;42.630;23.192;2022-08-11T09:30:48;92463.72;;;22.88;56.97
64602;BME280;51013;42.630;23.192;2022-08-11T09:33:18;92513.44;;;23.33;58.17
64602;BME280;51013;42.630;23.192;2022-08-11T09:35:47;92532.00;;;23.64;58.52
64602;BME280;51013;42.630;23.192;2022-08-11T09:38:17;92471.63;;;23.55;55.78
64602;BME280;51013;42.630;23.192;2022-08-11T09:41:07;92472.94;;;23.67;55.13
64602;BME280;51013;42.630;23.192;2022-08-11T09:43:35;92450.47;;;23.61;53.55
64602;BME280;51013;42.630;23.192;2022-08-11T09:46:23;92466.63;;;23.94;56.22
64602;BME280;51013;42.630;23.192;2022-08-11T09:48:54;92410.91;;;23.65;55.79
64602;BME280;51013;42.630;23.192;2022-08-11T09:51:23;92519.56;;;24.43;53.70
64602;BME280;51013;42.630;23.192;2022-08-11T09:53:51;92351.19;;;23.12;55.79
64602;BME280;51013;42.630;23.192;2022-08-11T09:56:22;92505.66;;;24.31;54.87
64602;BME280;51013;42.630;23.192;2022-08-11T09:59:07;92468.22;;;24.08;53.13
64602;BME280;51013;42.630;23.192;2022-08-11T10:01:40;92506.06;;;24.46;52.64
64602;BME280;51013;42.630;23.192;2022-08-11T10:04:15;92492.06;;;24.55;54.10
64602;BME280;51013;42.630;23.192;2022-08-11T10:06:47;92468.06;;;24.64;55.41
64602;BME280;51013;42.630;23.192;2022-08-11T10:09:38;92500.72;;;25.08;53.56
64602;BME280;51013;42.630;23.192;2022-08-11T10:12:10;92510.19;;;25.29;54.78
64602;BME280;51013;42.630;23.192;2022-08-11T10:14:43;92480.88;;;25.18;50.34
64602;BME280;51013;42.630;23.192;2022-08-11T10:17:31;92481.97;;;25.21;48.96
64602;BME280;51013;42.630;23.192;2022-08-11T10:20:00;92437.69;;;24.96;50.21
64602;BME280;51013;42.630;23.192;2022-08-11T10:22:33;92454.03;;;25.31;49.11
64602;BME280;51013;42.630;23.192;2022-08-11T10:25:19;92396.28;;;24.94;50.71
64602;BME280;51013;42.630;23.192;2022-08-11T10:28:07;92317.22;;;24.53;47.23
64602;BME280;51013;42.630;23.192;2022-08-11T10:30:34;92505.28;;;25.95;48.34
64602;BME280;51013;42.630;23.192;2022-08-11T10:33:19;92500.66;;;25.96;49.03
64602;BME280;51013;42.630;23.192;2022-08-11T10:36:04;92465.19;;;25.72;50.33
64602;BME280;51013;42.630;23.192;2022-08-11T10:38:33;92508.41;;;26.07;52.19
64602;BME280;51013;42.630;23.192;2022-08-11T10:41:01;92456.38;;;25.84;50.33
64602;BME280;51013;42.630;23.192;2022-08-11T10:43:48;92336.56;;;25.15;50.31
64602;BME280;51013;42.630;23.192;2022-08-11T10:46:19;92428.69;;;25.71;49.70
64602;BME280;51013;42.630;23.192;2022-08-11T10:49:05;92500.06;;;26.52;49.46
64602;BME280;51013;42.630;23.192;2022-08-11T10:51:33;92427.50;;;26.23;48.82
64602;BME280;51013;42.630;23.192;2022-08-11T10:54:19;92453.97;;;26.50;47.24
64602;BME280;51013;42.630;23.192;2022-08-11T10:57:04;92487.25;;;26.69;46.65
64602;BME280;51013;42.630;23.192;2022-08-11T10:59:50;92494.25;;;26.54;45.34
64602;BME280;51013;42.630;23.192;2022-08-11T11:02:20;92373.81;;;25.68;46.12
64602;BME280;51013;42.630;23.192;2022-08-11T11:05:00;92484.88;;;26.46;47.84
64602;BME280;51013;42.630;23.192;2022-08-11T11:07:37;92445.81;;;26.15;47.09
64602;BME280;51013;42.630;23.192;2022-08-11T11:10:06;92357.47;;;25.75;45.40
64602;BME280;51013;42.630;23.192;2022-08-11T11:12:38;92479.91;;;26.70;46.28
64602;BME280;51013;42.630;23.192;2022-08-11T11:15:27;92481.00;;;26.72;44.43
64602;BME280;51013;42.630;23.192;2022-08-11T11:18:16;92471.88;;;26.44;43.84
64602;BME280;51013;42.630;23.192;2022-08-11T11:20:50;92449.91;;;26.33;44.59
64602;BME280;51013;42.630;23.192;2022-08-11T11:23:22;92452.56;;;26.58;46.52
64602;BME280;51013;42.630;23.192;2022-08-11T11:26:00;92472.41;;;27.22;45.15
64602;BME280;51013;42.630;23.192;2022-08-11T11:31:35;92467.69;;;27.35;40.25
64602;BME280;51013;42.630;23.192;2022-08-11T11:34:16;92470.91;;;27.43;43.75
64602;BME280;51013;42.630;23.192;2022-08-11T11:36:48;92455.09;;;27.54;42.59
64602;BME280;51013;42.630;23.192;2022-08-11T11:39:18;92425.75;;;27.65;41.00
64602;BME280;51013;42.630;23.192;2022-08-11T11:41:47;92359.34;;;27.58;39.16
64602;BME280;51013;42.630;23.192;2022-08-11T11:44:16;92414.38;;;27.92;37.89
64602;BME280;51013;42.630;23.192;2022-08-11T11:46:45;92422.16;;;28.00;38.63
64602;BME280;51013;42.630;23.192;2022-08-11T11:49:13;92447.56;;;28.11;39.55
64602;BME280;51013;42.630;23.192;2022-08-11T11:51:43;92462.63;;;28.31;41.21
64602;BME280;51013;42.630;23.192;2022-08-11T11:54:13;92427.91;;;28.11;40.09
64602;BME280;51013;42.630;23.192;2022-08-11T11:56:41;92459.16;;;28.21;39.13
64602;BME280;51013;42.630;23.192;2022-08-11T11:59:10;92433.28;;;28.02;39.11
64602;BME280;51013;42.630;23.192;2022-08-11T12:01:56;92407.63;;;27.97;39.69
64602;BME280;51013;42.630;23.192;2022-08-11T12:04:24;92433.31;;;28.20;40.02
64602;BME280;51013;42.630;23.192;2022-08-11T12:06:52;92378.38;;;27.95;39.56
64602;BME280;51013;42.630;23.192;2022-08-11T12:09:40;92407.44;;;28.41;35.77
64602;BME280;51013;42.630;23.192;2022-08-11T12:12:07;92399.22;;;28.63;37.73
64602;BME280;51013;42.630;23.192;2022-08-11T12:14:53;92430.28;;;29.23;37.28
64602;BME280;51013;42.630;23.192;2022-08-11T12:17:22;92423.97;;;29.35;37.62
64602;BME280;51013;42.630;23.192;2022-08-11T12:19:52;92442.03;;;29.90;33.60
64602;BME280;51013;42.630;23.192;2022-08-11T12:22:19;92410.88;;;29.95;36.38
64602;BME280;51013;42.630;23.192;2022-08-11T12:25:04;92389.50;;;29.97;33.32
64602;BME280;51013;42.630;23.192;2022-08-11T12:27:52;92450.81;;;30.52;35.10
64602;BME280;51013;42.630;23.192;2022-08-11T12:30:19;92373.25;;;30.30;32.58
64602;BME280;51013;42.630;23.192;2022-08-11T12:32:49;92405.84;;;30.84;32.31
64602;BME280;51013;42.630;23.192;2022-08-11T12:35:16;92447.94;;;31.19;31.60
64602;BME280;51013;42.630;23.192;2022-08-11T12:37:47;92412.81;;;31.00;33.79
64602;BME280;51013;42.630;23.192;2022-08-11T12:40:18;92341.06;;;30.86;32.81
64602;BME280;51013;42.630;23.192;2022-08-11T12:43:07;92338.72;;;30.94;33.03
64602;BME280;51013;42.630;23.192;2022-08-11T12:45:57;92436.94;;;31.82;30.39
64602;BME280;51013;42.630;23.192;2022-08-11T12:48:30;92306.28;;;31.00;31.06
64602;BME280;51013;42.630;23.192;2022-08-11T12:51:19;92315.34;;;31.26;32.51
64602;BME280;51013;42.630;23.192;2022-08-11T12:54:09;92445.97;;;31.93;31.96
64602;BME280;51013;42.630;23.192;2022-08-11T12:56:42;92308.13;;;30.79;29.84
64602;BME280;51013;42.630;23.192;2022-08-11T12:59:28;92408.72;;;30.81;31.32
64602;BME280;51013;42.630;23.192;2022-08-11T13:02:16;92341.22;;;30.68;32.31
64602;BME280;51013;42.630;23.192;2022-08-11T13:05:03;92368.88;;;31.26;30.92
64602;BME280;51013;42.630;23.192;2022-08-11T13:07:31;92269.78;;;30.86;33.14
64602;BME280;51013;42.630;23.192;2022-08-11T13:10:01;92441.59;;;31.96;32.49
64602;BME280;51013;42.630;23.192;2022-08-11T13:12:31;92403.00;;;30.64;34.48
64602;BME280;51013;42.630;23.192;2022-08-11T13:15:14;92388.97;;;29.84;36.52
64602;BME280;51013;42.630;23.192;2022-08-11T13:17:42;92329.75;;;29.34;36.74
64602;BME280;51013;42.630;23.192;2022-08-11T13:20:11;92438.66;;;30.05;36.66
64602;BME280;51013;42.630;23.192;2022-08-11T13:22:41;92439.81;;;30.13;36.99
64602;BME280;51013;42.630;23.192;2022-08-11T13:25:10;92334.50;;;29.48;36.72
64602;BME280;51013;42.630;23.192;2022-08-11T13:27:40;92403.81;;;30.22;37.75
64602;BME280;51013;42.630;23.192;2022-08-11T13:30:08;92378.16;;;30.08;36.38
64602;BME280;51013;42.630;23.192;2022-08-11T13:32:58;92382.56;;;30.29;36.38
64602;BME280;51013;42.630;23.192;2022-08-11T13:35:28;92398.25;;;30.25;35.62
64602;BME280;51013;42.630;23.192;2022-08-11T13:37:57;92381.22;;;30.25;35.18
64602;BME280;51013;42.630;23.192;2022-08-11T13:40:24;92406.84;;;30.72;35.83
64602;BME280;51013;42.630;23.192;2022-08-11T13:42:52;92384.84;;;29.98;35.72
64602;BME280;51013;42.630;23.192;2022-08-11T13:45:21;92306.16;;;29.68;36.32
64602;BME280;51013;42.630;23.192;2022-08-11T13:47:51;92386.84;;;30.45;35.68
64602;BME280;51013;42.630;23.192;2022-08-11T13:50:22;92421.34;;;31.08;34.69
64602;BME280;51013;42.630;23.192;2022-08-11T13:53:16;92412.63;;;31.04;35.10
64602;BME280;51013;42.630;23.192;2022-08-11T13:55:45;92414.44;;;31.07;34.30
64602;BME280;51013;42.630;23.192;2022-08-11T13:58:13;92409.47;;;30.81;34.39
64602;BME280;51013;42.630;23.192;2022-08-11T14:00:41;92400.41;;;31.08;35.40
64602;BME280;51013;42.630;23.192;2022-08-11T14:03:12;92422.22;;;30.90;34.52
64602;BME280;51013;42.630;23.192;2022-08-11T14:05:41;92328.28;;;30.63;34.30
64602;BME280;51013;42.630;23.192;2022-08-11T14:08:15;92385.63;;;31.39;33.69
64602;BME280;51013;42.630;23.192;2022-08-11T14:10:44;92412.19;;;31.20;34.16
64602;BME280;51013;42.630;23.192;2022-08-11T14:13:33;92406.38;;;31.42;33.19
64602;BME280;51013;42.630;23.192;2022-08-11T14:16:08;92407.53;;;31.21;33.73
64602;BME280;51013;42.630;23.192;2022-08-11T14:18:42;92276.50;;;30.61;33.64
64602;BME280;51013;42.630;23.192;2022-08-11T14:21:13;92406.56;;;31.83;33.03
64602;BME280;51013;42.630;23.192;2022-08-11T14:24:01;92286.53;;;31.14;31.73
64602;BME280;51013;42.630;23.192;2022-08-11T14:26:30;92344.34;;;31.20;34.02
64602;BME280;51013;42.630;23.192;2022-08-11T14:29:06;92274.75;;;31.17;32.83
64602;BME280;51013;42.630;23.192;2022-08-11T14:31:37;92336.50;;;31.37;31.70
64602;BME280;51013;42.630;23.192;2022-08-11T14:34:06;92348.13;;;31.23;32.34